Time;durP1;ratioP1;P1;durP2;ratioP2;P2;SDS_P1;SDS_P2;PMS_P1;PMS_P2;Temp;Humidity;BMP_temperature;BMP_pressure;BME280_temperature;BME280_humidity;BME280_pressure;Samples;Min_cycle;Max_cycle;Signal;HPM_P1;HPM_P2
2023/12/25 00:01:46;;;;;;;15.90;3.67;;;12.60;99.90;;;;;;5052276;28;20378;-49
2023/12/25 00:04:12;;;;;;;19.95;2.60;;;11.50;99.90;;;;;;5052365;28;20059;-46
2023/12/25 00:06:38;;;;;;;16.17;3.30;;;12.60;99.90;;;;;;5052110;28;20512;-50
2023/12/25 00:09:03;;;;;;;15.43;2.63;;;12.50;99.90;;;;;;5052015;28;20503;-51
2023/12/25 00:11:29;;;;;;;16.05;2.53;;;10.10;99.90;;;;;;5050884;28;20362;-49
2023/12/25 00:13:55;;;;;;;17.33;2.50;;;12.30;99.90;;;;;;5052354;28;20033;-49
2023/12/25 00:16:25;;;;;;;16.02;3.28;;;12.10;99.90;;;;;;5051796;28;20186;-48
2023/12/25 00:18:51;;;;;;;16.63;2.67;;;11.60;99.90;;;;;;5051850;28;20481;-51
2023/12/25 00:21:18;;;;;;;18.35;2.75;;;10.10;99.90;;;;;;5051646;28;20485;-46
2023/12/25 00:23:43;;;;;;;17.00;3.28;;;12.40;99.90;;;;;;5051875;28;20120;-49
2023/12/25 00:26:09;;;;;;;13.50;2.72;;;10.30;99.90;;;;;;5051958;28;20179;-46
2023/12/25 00:28:34;;;;;;;16.70;2.53;;;12.30;99.90;;;;;;5051623;28;20049;-48
2023/12/25 00:31:00;;;;;;;21.02;2.83;;;11.10;99.90;;;;;;5050389;28;20037;-47
2023/12/25 00:33:26;;;;;;;11.38;2.40;;;12.30;99.90;;;;;;5051661;28;20040;-48
2023/12/25 00:35:51;;;;;;;16.55;2.60;;;12.40;99.90;;;;;;5051865;28;20066;-46
2023/12/25 00:38:17;;;;;;;15.93;3.35;;;10.20;99.90;;;;;;5051870;28;20048;-48
2023/12/25 00:40:43;;;;;;;16.85;3.10;;;10.90;99.90;;;;;;5052075;28;20110;-47
2023/12/25 00:43:08;;;;;;;18.63;2.60;;;10.30;99.90;;;;;;5051754;28;20114;-47
2023/12/25 00:45:34;;;;;;;12.35;2.72;;;10.30;99.90;;;;;;5051443;28;20366;-46
2023/12/25 00:48:00;;;;;;;16.00;3.78;;;12.00;99.90;;;;;;5051541;28;20041;-47
2023/12/25 00:50:26;;;;;;;14.65;3.45;;;10.60;99.90;;;;;;5051436;28;20400;-47
2023/12/25 00:52:51;;;;;;;11.85;2.88;;;10.50;99.90;;;;;;5051567;28;20099;-45
2023/12/25 00:55:17;;;;;;;13.07;2.50;;;10.50;99.90;;;;;;5051446;28;20040;-45
2023/12/25 00:57:42;;;;;;;15.95;1.95;;;10.40;99.90;;;;;;5051538;28;20041;-45
2023/12/25 01:00:09;;;;;;;11.95;2.00;;;10.60;99.90;;;;;;5051416;28;20040;-45
2023/12/25 01:02:35;;;;;;;13.48;2.58;;;10.80;99.90;;;;;;5051552;28;20045;-45
2023/12/25 01:05:01;;;;;;;14.88;2.40;;;11.10;99.90;;;;;;5051730;28;20366;-45
2023/12/25 01:07:26;;;;;;;14.07;2.72;;;10.90;99.90;;;;;;5051357;28;20107;-46
2023/12/25 01:09:52;;;;;;;9.68;2.67;;;11.70;99.90;;;;;;5051629;28;20041;-45
2023/12/25 01:12:18;;;;;;;10.18;1.63;;;11.40;99.90;;;;;;5050114;28;20044;-45
2023/12/25 01:14:46;;;;;;;13.80;2.33;;;10.80;99.90;;;;;;5051429;28;20037;-45
2023/12/25 01:17:12;;;;;;;12.80;2.67;;;10.70;99.90;;;;;;5051496;28;20041;-45
2023/12/25 01:19:38;;;;;;;12.32;2.95;;;11.10;99.90;;;;;;5051095;28;20055;-45
2023/12/25 01:22:04;;;;;;;12.90;1.90;;;11.50;99.90;;;;;;5051188;28;20041;-46
2023/12/25 01:24:29;;;;;;;14.20;1.98;;;10.70;99.90;;;;;;5051411;28;20598;-48
2023/12/25 01:26:55;;;;;;;9.88;1.80;;;10.50;99.90;;;;;;5051367;28;20451;-49
2023/12/25 01:29:20;;;;;;;11.52;1.95;;;11.40;99.90;;;;;;5049964;28;20708;-46
2023/12/25 01:31:46;;;;;;;11.98;1.90;;;11.10;99.90;;;;;;5052102;28;20127;-47
2023/12/25 01:34:12;;;;;;;11.55;1.80;;;10.20;99.90;;;;;;5054947;28;20045;-45
2023/12/25 01:36:38;;;;;;;12.10;2.53;;;10.30;99.90;;;;;;5055077;28;20045;-49
2023/12/25 01:39:04;;;;;;;9.98;1.88;;;10.30;99.90;;;;;;5053945;28;20044;-46
2023/12/25 01:41:30;;;;;;;14.63;1.90;;;11.40;99.90;;;;;;5055321;28;20065;-45
2023/12/25 01:43:56;;;;;;;13.95;3.17;;;10.50;99.90;;;;;;5055053;28;20099;-47
2023/12/25 01:46:22;;;;;;;14.60;2.45;;;11.40;99.90;;;;;;5054553;28;20060;-45
2023/12/25 01:48:50;;;;;;;11.82;2.33;;;10.20;99.90;;;;;;5054084;28;20453;-48
2023/12/25 01:51:21;;;;;;;14.30;1.77;;;10.80;99.90;;;;;;5053323;28;20041;-45
2023/12/25 01:53:48;;;;;;;13.82;2.20;;;10.40;99.90;;;;;;5055087;28;20041;-49
2023/12/25 01:56:14;;;;;;;11.63;2.00;;;11.30;99.90;;;;;;5054719;28;20091;-45
2023/12/25 01:58:39;;;;;;;12.90;2.10;;;11.10;99.90;;;;;;5054418;28;20049;-48
2023/12/25 02:01:05;;;;;;;10.50;1.90;;;11.20;99.90;;;;;;5054461;28;20108;-48
2023/12/25 02:03:31;;;;;;;14.43;2.55;;;11.00;99.90;;;;;;5054510;28;20045;-48
2023/12/25 02:05:57;;;;;;;15.30;2.78;;;10.30;99.90;;;;;;5052904;28;20171;-49
2023/12/25 02:08:23;;;;;;;14.40;3.03;;;11.00;99.90;;;;;;5054063;28;20068;-46
2023/12/25 02:10:49;;;;;;;12.65;3.13;;;10.60;99.90;;;;;;5054517;28;20519;-47
2023/12/25 02:13:14;;;;;;;17.75;2.05;;;10.10;99.90;;;;;;5054305;28;20041;-49
2023/12/25 02:15:41;;;;;;;15.65;2.60;;;10.10;99.90;;;;;;5054272;28;20413;-47
2023/12/25 02:18:08;;;;;;;13.20;2.45;;;10.10;99.90;;;;;;5053931;28;20331;-45
2023/12/25 02:20:33;;;;;;;10.05;1.95;;;10.40;99.90;;;;;;5053904;28;20080;-45
2023/12/25 02:23:04;;;;;;;10.38;2.05;;;10.60;99.90;;;;;;5054139;28;20442;-44
2023/12/25 02:25:34;;;;;;;15.63;2.60;;;10.10;99.90;;;;;;5054061;28;20127;-46
2023/12/25 02:28:00;;;;;;;10.95;2.05;;;10.60;99.90;;;;;;5054318;28;20036;-45
2023/12/25 02:30:27;;;;;;;14.80;2.03;;;11.00;99.90;;;;;;5054211;28;20037;-44
2023/12/25 02:32:52;;;;;;;10.25;2.17;;;11.00;99.90;;;;;;5054110;28;20086;-45
2023/12/25 02:35:18;;;;;;;15.85;2.20;;;10.40;99.90;;;;;;5053792;28;20041;-44
2023/12/25 02:37:44;;;;;;;14.05;2.28;;;10.20;99.90;;;;;;5053927;28;20041;-45
2023/12/25 02:40:10;;;;;;;14.27;2.25;;;10.80;99.90;;;;;;5054039;28;20041;-49
2023/12/25 02:42:35;;;;;;;14.60;2.70;;;10.90;99.90;;;;;;5052711;28;20520;-49
2023/12/25 02:45:01;;;;;;;8.93;1.83;;;10.80;99.90;;;;;;5053262;28;20489;-49
2023/12/25 02:47:27;;;;;;;12.00;2.25;;;11.00;99.90;;;;;;5053195;28;20103;-49
2023/12/25 02:49:53;;;;;;;10.20;1.88;;;10.30;99.90;;;;;;5052970;28;20476;-49
2023/12/25 02:52:19;;;;;;;16.88;2.00;;;10.20;99.90;;;;;;5053422;28;20059;-46
2023/12/25 02:54:44;;;;;;;18.15;2.20;;;10.50;99.90;;;;;;5053446;28;20033;-45
2023/12/25 02:57:10;;;;;;;13.20;2.72;;;10.20;99.90;;;;;;5053498;28;20045;-44
2023/12/25 02:59:36;;;;;;;15.60;2.17;;;9.90;99.90;;;;;;5053207;28;20040;-45
2023/12/25 03:02:02;;;;;;;13.60;2.65;;;9.70;99.90;;;;;;5051880;28;20045;-44
2023/12/25 03:04:27;;;;;;;16.17;3.13;;;9.70;99.90;;;;;;5053421;28;20045;-44
2023/12/25 03:06:53;;;;;;;16.42;2.97;;;10.90;99.90;;;;;;5053250;28;20056;-46
2023/12/25 03:09:19;;;;;;;14.25;2.88;;;10.60;99.90;;;;;;5053264;28;20032;-44
2023/12/25 03:11:45;;;;;;;14.07;2.08;;;9.70;99.90;;;;;;5053493;28;20069;-45
2023/12/25 03:14:11;;;;;;;17.40;3.10;;;11.20;99.90;;;;;;5053184;28;20488;-44
2023/12/25 03:16:36;;;;;;;20.90;2.40;;;10.40;99.90;;;;;;5053117;28;20045;-45
2023/12/25 03:19:02;;;;;;;18.83;2.65;;;9.70;99.90;;;;;;5053347;28;20079;-45
2023/12/25 03:21:28;;;;;;;15.13;2.42;;;11.00;99.90;;;;;;5053545;28;20041;-46
2023/12/25 03:23:54;;;;;;;13.75;2.53;;;11.00;99.90;;;;;;5053494;28;20408;-45
2023/12/25 03:26:19;;;;;;;14.68;2.45;;;10.80;99.90;;;;;;5053209;28;20079;-44
2023/12/25 03:28:45;;;;;;;14.40;2.60;;;9.90;99.90;;;;;;5053210;28;20037;-45
2023/12/25 03:31:11;;;;;;;22.00;3.33;;;11.20;99.90;;;;;;5052979;28;20048;-44
2023/12/25 03:33:37;;;;;;;18.55;2.15;;;10.50;99.90;;;;;;5051678;28;20198;-48
2023/12/25 03:36:04;;;;;;;17.70;2.90;;;9.70;99.90;;;;;;5052926;28;20048;-46
2023/12/25 03:38:30;;;;;;;11.70;2.33;;;9.80;99.90;;;;;;5052924;28;20044;-47
2023/12/25 03:40:56;;;;;;;21.80;2.42;;;11.10;99.90;;;;;;5052334;28;20120;-45
2023/12/25 03:43:23;;;;;;;13.35;2.20;;;10.10;99.90;;;;;;5052390;28;20037;-45
2023/12/25 03:45:49;;;;;;;15.98;2.42;;;10.00;99.90;;;;;;5050864;28;20134;-46
2023/12/25 03:48:16;;;;;;;13.63;1.95;;;10.50;99.90;;;;;;5052358;28;20056;-48
2023/12/25 03:50:42;;;;;;;15.00;1.92;;;10.60;99.90;;;;;;5052451;28;20052;-47
2023/12/25 03:53:08;;;;;;;14.48;2.38;;;10.40;99.90;;;;;;5052446;28;20043;-46
2023/12/25 03:55:36;;;;;;;11.70;2.40;;;10.50;99.90;;;;;;5052171;28;20112;-46
2023/12/25 03:58:02;;;;;;;14.15;2.42;;;10.10;99.90;;;;;;5052286;28;20124;-48
2023/12/25 04:00:28;;;;;;;14.38;2.70;;;10.80;99.90;;;;;;5052108;28;20037;-46
2023/12/25 04:02:55;;;;;;;15.00;2.97;;;10.90;99.90;;;;;;5052033;28;20102;-47
2023/12/25 04:05:21;;;;;;;11.57;2.10;;;9.80;99.90;;;;;;5050953;28;20045;-49
2023/12/25 04:07:47;;;;;;;17.77;2.10;;;10.80;99.90;;;;;;5052463;28;20386;-47
2023/12/25 04:10:13;;;;;;;14.20;2.22;;;9.80;99.90;;;;;;5065165;28;20076;-50
2023/12/25 04:12:39;;;;;;;8.52;1.65;;;10.70;99.90;;;;;;5072250;28;20036;-48
2023/12/25 04:15:07;;;;;;;14.88;2.53;;;9.70;99.90;;;;;;5072098;28;20397;-48
2023/12/25 04:17:33;;;;;;;12.98;1.70;;;10.40;99.90;;;;;;5071945;28;20040;-48
2023/12/25 04:19:59;;;;;;;15.50;2.15;;;10.70;99.90;;;;;;5072005;28;20048;-45
2023/12/25 04:22:24;;;;;;;14.73;1.98;;;9.70;99.90;;;;;;5071833;28;20105;-45
2023/12/25 04:24:50;;;;;;;14.82;2.58;;;10.00;99.90;;;;;;5071675;28;20036;-47
2023/12/25 04:27:16;;;;;;;14.48;2.72;;;9.70;99.90;;;;;;5071712;28;20090;-45
2023/12/25 04:29:41;;;;;;;18.20;2.28;;;11.00;99.90;;;;;;5071692;28;20040;-46
2023/12/25 04:32:07;;;;;;;14.15;2.08;;;9.70;99.90;;;;;;5071472;28;20033;-44
2023/12/25 04:34:33;;;;;;;10.88;2.00;;;9.90;99.90;;;;;;5071824;28;20032;-46
2023/12/25 04:36:58;;;;;;;15.52;3.03;;;9.70;99.90;;;;;;5071675;28;20523;-44
2023/12/25 04:39:24;;;;;;;13.50;2.33;;;10.50;99.90;;;;;;5070407;28;20049;-46
2023/12/25 04:41:49;;;;;;;16.75;2.60;;;9.70;99.90;;;;;;5070351;28;20040;-45
2023/12/25 04:44:15;;;;;;;16.63;2.42;;;10.20;99.90;;;;;;5071347;28;20041;-45
2023/12/25 04:46:41;;;;;;;11.15;2.20;;;10.80;99.90;;;;;;5070967;28;20124;-46
2023/12/25 04:49:06;;;;;;;12.32;2.17;;;10.70;99.90;;;;;;5071796;28;20040;-45
2023/12/25 04:51:32;;;;;;;12.55;2.10;;;10.90;99.90;;;;;;5071950;28;20040;-47
2023/12/25 04:53:58;;;;;;;13.48;1.95;;;10.80;99.90;;;;;;5071925;28;20045;-45
2023/12/25 04:56:24;;;;;;;18.83;2.58;;;10.80;99.90;;;;;;5071869;28;20460;-45
2023/12/25 04:58:50;;;;;;;14.98;1.98;;;11.00;99.90;;;;;;5071804;28;20044;-45
2023/12/25 05:01:16;;;;;;;19.75;2.05;;;9.60;99.90;;;;;;5072144;28;20108;-45
2023/12/25 05:03:41;;;;;;;14.02;2.40;;;10.40;99.90;;;;;;5071757;28;20037;-47
2023/12/25 05:06:07;;;;;;;7.47;1.63;;;10.30;99.90;;;;;;5072027;28;20047;-49
2023/12/25 05:08:33;;;;;;;14.20;1.67;;;9.60;99.90;;;;;;5075609;28;20037;-45
2023/12/25 05:10:58;;;;;;;17.08;3.10;;;10.30;99.90;;;;;;5074773;28;20067;-47
2023/12/25 05:13:24;;;;;;;11.55;1.92;;;10.30;99.90;;;;;;5073970;28;20044;-45
2023/12/25 05:15:50;;;;;;;11.57;2.10;;;10.10;99.90;;;;;;5075189;28;20043;-45
2023/12/25 05:18:16;;;;;;;12.90;1.92;;;9.80;99.90;;;;;;5075660;28;20048;-47
2023/12/25 05:20:42;;;;;;;11.75;1.80;;;10.30;99.90;;;;;;5075484;28;20036;-49
2023/12/25 05:23:08;;;;;;;17.25;1.85;;;9.90;99.90;;;;;;5075563;28;20442;-50
2023/12/25 05:25:33;;;;;;;10.65;2.00;;;9.80;99.90;;;;;;5073997;28;20045;-47
2023/12/25 05:27:59;;;;;;;17.08;3.60;;;9.70;99.90;;;;;;5075347;28;20044;-46
2023/12/25 05:30:25;;;;;;;11.70;1.80;;;10.80;99.90;;;;;;5075378;28;20044;-46
2023/12/25 05:32:50;;;;;;;12.80;2.35;;;9.70;99.90;;;;;;5075293;28;20098;-46
2023/12/25 05:35:16;;;;;;;14.93;2.28;;;9.70;99.90;;;;;;5073672;28;20040;-48
2023/12/25 05:37:42;;;;;;;12.65;2.08;;;10.60;99.90;;;;;;5075294;28;20043;-50
2023/12/25 05:40:08;;;;;;;12.73;2.22;;;10.50;99.90;;;;;;5074873;28;20051;-46
2023/12/25 05:42:34;;;;;;;12.40;1.90;;;9.80;99.90;;;;;;5074965;28;20044;-45
2023/12/25 05:44:59;;;;;;;14.10;1.90;;;9.50;99.90;;;;;;5074778;28;20061;-47
2023/12/25 05:47:25;;;;;;;13.60;2.38;;;9.40;99.90;;;;;;5074671;28;20044;-48
2023/12/25 05:49:53;;;;;;;11.10;1.77;;;9.80;99.90;;;;;;5075009;28;20075;-49
2023/12/25 05:52:18;;;;;;;14.20;2.33;;;10.20;99.90;;;;;;5074939;28;20036;-46
2023/12/25 05:54:44;;;;;;;12.23;2.28;;;9.50;99.90;;;;;;5074825;28;20472;-50
2023/12/25 05:57:10;;;;;;;15.43;2.05;;;9.20;99.90;;;;;;5074929;28;20090;-45
2023/12/25 05:59:37;;;;;;;8.90;1.65;;;10.30;99.90;;;;;;5074879;28;20049;-46
2023/12/25 06:02:04;;;;;;;13.23;2.10;;;10.40;99.90;;;;;;5074855;28;20072;-45
2023/12/25 06:04:29;;;;;;;10.57;1.80;;;9.30;99.90;;;;;;5073654;28;20114;-46
2023/12/25 06:06:55;;;;;;;13.45;2.42;;;9.20;99.90;;;;;;5074399;28;20044;-51
2023/12/25 06:09:25;;;;;;;11.38;2.08;;;10.20;99.90;;;;;;5074176;28;20036;-46
2023/12/25 06:11:51;;;;;;;13.90;2.22;;;9.90;99.90;;;;;;5074378;28;20043;-47
2023/12/25 06:14:16;;;;;;;16.60;2.80;;;10.20;99.90;;;;;;5074293;28;20028;-46
2023/12/25 06:16:42;;;;;;;11.52;1.98;;;9.10;99.90;;;;;;5074393;28;20459;-45
2023/12/25 06:19:08;;;;;;;13.50;2.20;;;10.30;99.90;;;;;;5073846;28;20401;-45
2023/12/25 06:21:34;;;;;;;11.95;2.38;;;9.80;99.90;;;;;;5073102;28;20151;-44
2023/12/25 06:23:59;;;;;;;19.02;3.08;;;10.10;99.90;;;;;;5073615;28;20075;-45
2023/12/25 06:26:25;;;;;;;15.25;2.03;;;9.90;99.90;;;;;;5073045;28;20049;-46
2023/12/25 06:28:51;;;;;;;15.43;2.17;;;10.30;99.90;;;;;;5072010;28;20178;-45
2023/12/25 06:31:16;;;;;;;17.08;2.40;;;9.20;99.90;;;;;;5073440;28;20078;-46
2023/12/25 06:33:44;;;;;;;13.05;2.33;;;9.10;99.90;;;;;;5073253;28;20072;-46
2023/12/25 06:36:10;;;;;;;16.40;1.88;;;10.30;99.90;;;;;;5073511;28;20355;-48
2023/12/25 06:38:36;;;;;;;15.32;2.10;;;9.40;99.90;;;;;;5055468;28;20088;-46
2023/12/25 06:41:02;;;;;;;12.63;2.08;;;9.50;99.90;;;;;;5073352;28;20055;-45
2023/12/25 06:43:27;;;;;;;14.82;2.30;;;10.10;99.90;;;;;;5073446;28;20110;-47
2023/12/25 06:45:53;;;;;;;18.42;2.47;;;9.50;99.90;;;;;;5072795;28;20451;-49
2023/12/25 06:48:19;;;;;;;17.00;3.70;;;10.10;99.90;;;;;;5072649;28;20447;-47
2023/12/25 06:50:44;;;;;;;13.35;2.40;;;9.20;99.90;;;;;;5072114;28;20044;-45
2023/12/25 06:53:10;;;;;;;14.02;2.80;;;10.30;99.90;;;;;;5073018;28;20040;-46
2023/12/25 06:55:36;;;;;;;17.33;4.05;;;9.40;99.90;;;;;;5073135;28;20052;-45
2023/12/25 06:58:02;;;;;;;16.10;2.30;;;10.50;99.90;;;;;;5065160;28;20492;-45
2023/12/25 07:00:27;;;;;;;14.77;2.83;;;9.40;99.90;;;;;;5059729;28;20546;-46
2023/12/25 07:02:53;;;;;;;15.25;2.45;;;10.20;99.90;;;;;;5062867;28;20091;-50
2023/12/25 07:05:19;;;;;;;13.52;2.75;;;9.10;99.90;;;;;;5062718;28;20037;-45
2023/12/25 07:07:44;;;;;;;19.63;2.22;;;10.30;99.90;;;;;;5061899;28;20032;-45
2023/12/25 07:10:10;;;;;;;12.07;1.85;;;10.00;99.90;;;;;;5060718;28;20037;-45
2023/12/25 07:12:35;;;;;;;14.52;2.35;;;10.40;99.90;;;;;;5061392;28;20116;-45
2023/12/25 07:15:01;;;;;;;16.75;2.85;;;10.20;99.90;;;;;;5062092;28;20039;-45
2023/12/25 07:17:27;;;;;;;13.98;2.22;;;9.70;99.90;;;;;;5059989;28;20098;-45
2023/12/25 07:19:53;;;;;;;13.35;2.30;;;9.00;99.90;;;;;;5072465;28;20051;-45
2023/12/25 07:22:18;;;;;;;11.55;2.42;;;10.10;99.90;;;;;;5072578;28;20158;-50
2023/12/25 07:24:44;;;;;;;14.02;2.30;;;9.60;99.90;;;;;;5070392;28;20059;-48
2023/12/25 07:27:10;;;;;;;17.08;2.28;;;10.30;99.90;;;;;;5072331;28;20047;-45
2023/12/25 07:29:36;;;;;;;15.52;2.55;;;9.20;99.90;;;;;;5070091;28;20392;-49
2023/12/25 07:32:02;;;;;;;15.55;2.50;;;10.20;99.90;;;;;;5072381;28;20070;-46
2023/12/25 07:34:28;;;;;;;18.10;3.47;;;9.70;99.90;;;;;;5071850;28;20028;-45
2023/12/25 07:36:54;;;;;;;14.32;3.10;;;9.10;99.90;;;;;;5070238;28;20064;-46
2023/12/25 07:39:19;;;;;;;15.20;2.05;;;8.90;99.90;;;;;;5071489;28;20488;-47
2023/12/25 07:41:48;;;;;;;14.20;2.30;;;9.00;99.90;;;;;;5053789;28;20141;-47
2023/12/25 07:44:14;;;;;;;17.10;2.20;;;10.30;99.90;;;;;;5071551;28;20032;-46
2023/12/25 07:46:39;;;;;;;13.75;3.17;;;9.20;99.90;;;;;;5071042;28;20520;-50
2023/12/25 07:49:05;;;;;;;10.32;2.08;;;9.60;99.90;;;;;;5071436;28;20048;-47
2023/12/25 07:51:31;;;;;;;12.52;2.00;;;9.30;99.90;;;;;;5071459;28;20044;-46
2023/12/25 07:53:56;;;;;;;9.55;2.38;;;9.80;99.90;;;;;;5071319;28;20047;-45
2023/12/25 07:56:22;;;;;;;10.52;1.80;;;9.50;99.90;;;;;;5071068;28;20040;-45
2023/12/25 07:58:48;;;;;;;9.30;1.50;;;9.00;99.90;;;;;;5071087;28;20086;-45
2023/12/25 08:01:13;;;;;;;13.50;2.08;;;8.50;99.90;;;;;;5071277;28;20074;-45
2023/12/25 08:03:39;;;;;;;8.80;1.20;;;9.50;99.90;;;;;;5071028;28;20201;-45
2023/12/25 08:06:07;;;;;;;13.48;1.58;;;9.10;99.90;;;;;;5070949;28;20059;-44
2023/12/25 08:08:32;;;;;;;7.88;1.50;;;9.20;99.90;;;;;;5070572;28;20469;-45
2023/12/25 08:10:58;;;;;;;8.90;1.40;;;8.90;99.90;;;;;;5070988;28;20036;-45
2023/12/25 08:13:24;;;;;;;9.57;2.03;;;9.30;99.90;;;;;;5070787;28;20408;-45
2023/12/25 08:15:49;;;;;;;8.27;1.55;;;8.80;99.90;;;;;;5070799;28;20127;-45
2023/12/25 08:18:15;;;;;;;10.75;1.35;;;9.20;99.90;;;;;;5070690;28;20044;-45
2023/12/25 08:20:41;;;;;;;12.48;1.73;;;8.30;99.90;;;;;;5070497;28;20044;-45
2023/12/25 08:23:07;;;;;;;15.88;1.95;;;8.80;99.90;;;;;;5068830;28;20040;-47
2023/12/25 08:25:32;;;;;;;11.68;2.42;;;8.40;99.90;;;;;;5070460;28;20044;-46
2023/12/25 08:27:58;;;;;;;9.35;1.40;;;8.40;99.90;;;;;;5070931;28;20507;-50
2023/12/25 08:30:24;;;;;;;9.38;1.63;;;9.00;99.90;;;;;;5069526;28;20427;-46
2023/12/25 08:32:50;;;;;;;9.10;1.50;;;9.10;99.90;;;;;;5069335;28;20608;-49
2023/12/25 08:35:15;;;;;;;12.73;2.10;;;8.30;99.90;;;;;;5070632;28;20067;-45
2023/12/25 08:37:41;;;;;;;8.90;1.55;;;9.10;99.90;;;;;;5070510;28;20063;-46
2023/12/25 08:40:07;;;;;;;13.80;1.75;;;8.70;99.90;;;;;;5069160;28;20104;-45
2023/12/25 08:42:33;;;;;;;10.63;2.42;;;8.70;99.90;;;;;;5070335;28;20041;-45
2023/12/25 08:44:58;;;;;;;15.38;2.15;;;8.20;99.90;;;;;;5068721;28;20056;-47
2023/12/25 08:47:24;;;;;;;15.30;2.05;;;8.70;99.90;;;;;;5070500;28;20091;-46
2023/12/25 08:49:50;;;;;;;5.88;1.52;;;9.00;99.90;;;;;;5052504;28;20177;-49
2023/12/25 08:52:17;;;;;;;8.10;1.30;;;9.00;99.90;;;;;;5069369;28;20423;-49
2023/12/25 08:54:43;;;;;;;10.35;2.05;;;8.90;99.90;;;;;;5070279;28;20329;-46
2023/12/25 08:57:09;;;;;;;11.18;1.70;;;8.60;99.90;;;;;;5070137;28;20040;-46
2023/12/25 08:59:36;;;;;;;9.85;1.40;;;9.00;99.90;;;;;;5070059;28;20125;-46
2023/12/25 09:02:02;;;;;;;6.90;1.25;;;8.90;99.90;;;;;;5070138;28;20037;-49
2023/12/25 09:04:28;;;;;;;8.27;1.40;;;8.60;99.90;;;;;;5068787;28;20068;-45
2023/12/25 09:06:53;;;;;;;7.75;1.75;;;8.80;99.90;;;;;;5070246;28;20102;-45
2023/12/25 09:09:19;;;;;;;10.98;1.95;;;8.80;99.90;;;;;;5051953;28;20044;-44
2023/12/25 09:11:46;;;;;;;10.35;1.83;;;9.00;99.90;;;;;;5070245;28;20067;-49
2023/12/25 09:14:12;;;;;;;10.52;1.38;;;8.90;99.90;;;;;;5070032;28;20048;-45
2023/12/25 09:16:38;;;;;;;6.88;1.38;;;8.10;99.90;;;;;;5069981;28;20044;-48
2023/12/25 09:19:04;;;;;;;10.25;1.25;;;8.80;99.90;;;;;;5070191;28;20040;-48
2023/12/25 09:21:36;;;;;;;9.45;1.20;;;8.10;99.90;;;;;;5070120;28;20041;-46
2023/12/25 09:24:01;;;;;;;8.88;1.85;;;8.10;99.90;;;;;;5068970;28;20044;-48
2023/12/25 09:26:27;;;;;;;9.40;1.55;;;8.40;99.90;;;;;;5069487;28;20039;-47
2023/12/25 09:28:53;;;;;;;9.27;1.13;;;8.80;99.90;;;;;;5068988;28;20044;-44
2023/12/25 09:31:18;;;;;;;10.73;1.58;;;8.80;99.90;;;;;;5059155;28;20150;-44
2023/12/25 09:33:45;;;;;;;7.80;1.30;;;8.60;99.90;;;;;;5058502;28;20098;-44
2023/12/25 09:36:11;;;;;;;11.05;1.55;;;9.20;99.90;;;;;;5058026;28;20049;-45
2023/12/25 09:38:36;;;;;;;9.75;1.30;;;9.30;99.90;;;;;;5059397;28;20505;-47
2023/12/25 09:41:06;;;;;;;9.50;1.73;;;8.30;99.90;;;;;;5059753;28;20080;-45
2023/12/25 09:43:34;;;;;;;6.55;1.48;;;9.10;99.90;;;;;;5058499;28;20036;-47
2023/12/25 09:46:02;;;;;;;12.55;2.28;;;8.30;99.90;;;;;;5058641;28;20503;-49
2023/12/25 09:48:28;;;;;;;11.80;1.00;;;8.30;99.90;;;;;;5055568;28;20041;-49
2023/12/25 09:50:57;;;;;;;7.35;1.20;;;8.20;99.90;;;;;;5059831;28;20033;-47
2023/12/25 09:53:23;;;;;;;7.22;1.17;;;8.90;99.90;;;;;;5070502;28;20537;-49
2023/12/25 09:55:50;;;;;;;7.55;1.20;;;9.00;99.90;;;;;;5071872;28;20052;-48
2023/12/25 09:58:17;;;;;;;10.85;1.30;;;8.20;99.90;;;;;;5072144;28;20036;-45
2023/12/25 10:00:43;;;;;;;10.45;1.73;;;8.30;99.90;;;;;;5071853;28;20105;-47
2023/12/25 10:03:10;;;;;;;8.45;1.80;;;8.60;99.90;;;;;;5071974;28;20045;-47
2023/12/25 10:05:35;;;;;;;8.50;1.05;;;9.30;99.90;;;;;;5072067;28;20048;-46
2023/12/25 10:08:01;;;;;;;10.85;1.42;;;9.00;99.90;;;;;;5070689;28;20123;-45
2023/12/25 10:10:31;;;;;;;7.28;1.38;;;8.40;99.90;;;;;;5070938;28;20374;-45
2023/12/25 10:13:00;;;;;;;9.63;1.20;;;9.40;99.90;;;;;;5072960;28;20032;-45
2023/12/25 10:15:26;;;;;;;8.75;1.45;;;8.60;99.90;;;;;;5072800;28;20044;-46
2023/12/25 10:18:08;;;;;;;10.02;1.30;;;9.50;99.90;;;;;;5071860;28;20115;-48
2023/12/25 10:20:34;;;;;;;;;;;8.60;99.90;;;;;;5072670;28;20412;-44
2023/12/25 10:23:00;;;;;;;10.02;1.30;;;8.90;99.90;;;;;;5072852;28;19930;-45
2023/12/25 10:25:28;;;;;;;8.38;1.50;;;9.00;99.90;;;;;;5072955;28;20040;-48
2023/12/25 10:27:54;;;;;;;10.40;1.70;;;9.50;99.90;;;;;;5072483;28;20045;-47
2023/12/25 10:30:27;;;;;;;12.27;2.38;;;9.50;99.90;;;;;;5072869;28;20037;-45
2023/12/25 10:33:10;;;;;;;10.00;1.13;;;9.50;99.90;;;;;;5073082;28;20070;-46
2023/12/25 10:35:37;;;;;;;11.57;1.70;;;9.00;99.90;;;;;;5072689;28;20050;-48
2023/12/25 10:38:07;;;;;;;14.30;2.55;;;9.30;99.90;;;;;;5073067;28;20041;-47
2023/12/25 10:40:33;;;;;;;11.00;2.00;;;8.60;99.90;;;;;;5073334;28;20052;-46
2023/12/25 10:43:00;;;;;;;10.90;2.00;;;8.70;99.90;;;;;;5073658;28;20028;-47
2023/12/25 10:45:28;;;;;;;11.27;1.50;;;9.00;99.90;;;;;;5073025;28;20063;-46
2023/12/25 10:47:59;;;;;;;11.30;1.95;;;9.20;99.90;;;;;;5073167;28;20075;-49
2023/12/25 10:50:30;;;;;;;13.63;1.80;;;8.90;99.90;;;;;;5071835;28;20048;-50
2023/12/25 10:53:00;;;;;;;16.33;2.28;;;9.60;99.90;;;;;;5073253;28;20040;-47
2023/12/25 10:55:39;;;;;;;13.65;1.83;;;9.60;99.90;;;;;;5073435;28;20040;-46
2023/12/25 10:58:08;;;;;;;13.48;1.77;;;9.30;99.90;;;;;;5073251;28;20051;-45
2023/12/25 11:00:50;;;;;;;10.63;1.88;;;9.70;99.90;;;;;;5073416;28;20170;-47
2023/12/25 11:03:15;;;;;;;15.57;2.13;;;9.10;99.90;;;;;;5073123;28;20051;-45
2023/12/25 11:05:41;;;;;;;8.95;2.00;;;10.00;99.90;;;;;;5073064;28;20044;-46
2023/12/25 11:08:08;;;;;;;13.77;2.17;;;9.50;99.90;;;;;;5073273;28;20047;-45
2023/12/25 11:10:35;;;;;;;9.10;1.75;;;10.00;99.90;;;;;;5073006;28;20041;-47
2023/12/25 11:13:02;;;;;;;11.40;1.67;;;9.20;99.90;;;;;;5072822;28;20051;-48
2023/12/25 11:15:27;;;;;;;10.25;2.08;;;9.10;99.90;;;;;;5072648;28;20055;-47
2023/12/25 11:17:54;;;;;;;11.73;1.85;;;9.90;99.90;;;;;;5072521;28;20111;-47
2023/12/25 11:20:20;;;;;;;15.10;2.05;;;9.10;99.90;;;;;;5072736;28;20717;-47
2023/12/25 11:22:46;;;;;;;13.82;2.08;;;10.30;99.90;;;;;;5072230;28;20056;-45
2023/12/25 11:25:18;;;;;;;14.90;2.28;;;9.60;99.90;;;;;;5072570;28;20071;-45
2023/12/25 11:27:53;;;;;;;13.95;1.98;;;9.20;99.90;;;;;;5072520;28;20036;-45
2023/12/25 11:30:24;;;;;;;14.05;2.55;;;9.00;99.90;;;;;;5070663;28;20045;-46
2023/12/25 11:32:51;;;;;;;14.15;2.13;;;10.30;99.90;;;;;;5072608;28;20037;-46
2023/12/25 11:35:31;;;;;;;19.05;2.00;;;10.40;99.90;;;;;;5071137;28;20040;-46
2023/12/25 11:38:19;;;;;;;13.27;2.05;;;9.10;99.90;;;;;;5072241;28;20048;-48
2023/12/25 11:40:46;;;;;;;13.95;2.05;;;9.30;99.90;;;;;;5072189;28;20618;-47
2023/12/25 11:43:16;;;;;;;18.73;2.30;;;10.40;99.90;;;;;;5072122;28;20084;-48
2023/12/25 11:45:54;;;;;;;22.25;2.60;;;9.10;99.90;;;;;;5071889;28;20060;-47
2023/12/25 11:48:20;;;;;;;15.88;2.53;;;10.10;99.90;;;;;;5071962;28;20052;-48
2023/12/25 11:50:46;;;;;;;13.32;2.85;;;9.20;99.90;;;;;;5071854;28;20393;-47
2023/12/25 11:53:38;;;;;;;15.13;2.47;;;10.00;99.90;;;;;;5070577;28;20105;-45
2023/12/25 11:56:04;;;;;;;;;;;9.00;99.90;;;;;;5069880;28;20060;-45
2023/12/25 11:58:33;;;;;;;21.73;3.22;;;9.10;99.90;;;;;;5071735;28;20011;-45
2023/12/25 12:00:58;;;;;;;16.40;3.45;;;9.40;99.90;;;;;;5070466;28;20552;-45
2023/12/25 12:03:24;;;;;;;15.18;2.47;;;10.30;99.90;;;;;;5071976;28;20044;-50
2023/12/25 12:05:50;;;;;;;17.35;2.40;;;9.10;99.90;;;;;;5072291;28;20084;-49
2023/12/25 12:08:15;;;;;;;22.65;2.42;;;10.20;99.90;;;;;;5071898;28;20503;-48
2023/12/25 12:10:42;;;;;;;13.13;2.80;;;9.20;99.90;;;;;;5072512;28;20156;-47
2023/12/25 12:13:07;;;;;;;14.40;2.47;;;9.90;99.90;;;;;;5072463;28;20436;-46
2023/12/25 12:15:34;;;;;;;18.70;3.03;;;9.40;99.90;;;;;;5072131;28;20048;-46
2023/12/25 12:18:00;;;;;;;16.27;2.72;;;10.50;99.90;;;;;;5071942;28;20040;-45
2023/12/25 12:20:26;;;;;;;38.05;4.35;;;10.40;99.90;;;;;;5071961;28;20055;-47
2023/12/25 12:22:53;;;;;;;18.55;3.63;;;9.30;99.90;;;;;;5070700;28;20400;-48
2023/12/25 12:25:19;;;;;;;12.35;2.28;;;9.40;99.90;;;;;;5071767;28;20446;-47
2023/12/25 12:27:46;;;;;;;16.65;2.95;;;9.50;99.90;;;;;;5071222;28;20044;-49
2023/12/25 12:30:12;;;;;;;14.93;2.88;;;9.30;99.90;;;;;;5071465;28;20080;-46
2023/12/25 12:32:41;;;;;;;15.98;2.72;;;9.30;99.90;;;;;;5071846;28;20040;-47
2023/12/25 12:35:08;;;;;;;15.75;2.72;;;10.20;99.90;;;;;;5071405;28;20047;-49
2023/12/25 12:37:34;;;;;;;16.77;2.70;;;8.90;99.90;;;;;;5071364;28;20047;-50
2023/12/25 12:40:05;;;;;;;14.02;2.95;;;10.50;99.90;;;;;;5070450;28;20037;-47